createdAt,value
2023-06-06T00:03:01.328Z,5.05
2023-06-06T00:08:04.104Z,3.92
2023-06-06T00:13:06.772Z,7.38
2023-06-06T00:18:10.051Z,5.57
2023-06-06T00:23:13.936Z,7.60
2023-06-06T00:28:16.890Z,5.38
2023-06-06T00:33:19.677Z,3.67
2023-06-06T00:38:22.391Z,6.22
2023-06-06T00:43:25.054Z,5.90
2023-06-06T00:48:27.969Z,5.60
2023-06-06T00:53:30.988Z,6.63
2023-06-06T00:58:36.707Z,5.70
2023-06-06T01:03:42.351Z,6.20
2023-06-06T01:08:47.408Z,6.65
2023-06-06T01:14:06.877Z,5.57
2023-06-06T01:19:17.617Z,7.13
2023-06-06T01:24:21.264Z,6.53
2023-06-06T01:29:24.593Z,2.60
2023-06-06T01:34:49.991Z,7.95
2023-06-06T01:39:57.901Z,6.82
2023-06-06T01:45:05.098Z,9.63
2023-06-06T01:50:09.009Z,3.15
2023-06-06T01:55:11.715Z,3.10
2023-06-06T02:00:14.661Z,7.68
2023-06-06T02:05:17.609Z,5.43
2023-06-06T02:10:20.702Z,5.97
2023-06-06T02:15:27.723Z,4.53
2023-06-06T02:20:30.614Z,4.30
2023-06-06T02:25:34.468Z,4.85
2023-06-06T02:30:37.200Z,3.70
2023-06-06T02:35:40.082Z,5.25
2023-06-06T02:40:42.723Z,3.65
2023-06-06T02:45:48.151Z,5.70
2023-06-06T02:50:51.118Z,4.85
2023-06-06T02:55:53.976Z,3.80
2023-06-06T03:00:58.390Z,4.75
2023-06-06T03:06:02.033Z,4.55
2023-06-06T03:11:04.954Z,5.03
2023-06-06T03:16:07.781Z,4.72
2023-06-06T03:21:15.811Z,2.58
2023-06-06T03:26:22.156Z,5.53
2023-06-06T03:31:25.553Z,2.28
2023-06-06T03:36:33.810Z,10.35
2023-06-06T03:41:37.392Z,4.95
2023-06-06T03:46:42.370Z,3.35
2023-06-06T03:51:45.336Z,3.78
2023-06-06T03:56:49.734Z,4.93
2023-06-06T04:01:54.471Z,6.78
2023-06-06T04:07:00.926Z,4.05
2023-06-06T04:12:04.420Z,5.80
2023-06-06T04:17:08.832Z,4.50
2023-06-06T04:22:11.646Z,3.47
2023-06-06T04:27:15.205Z,7.07
2023-06-06T04:32:20.183Z,4.22
2023-06-06T04:37:23.751Z,2.67
2023-06-06T04:42:34.213Z,4.68
2023-06-06T04:47:41.812Z,4.55
2023-06-06T04:52:44.792Z,4.53
2023-06-06T04:57:47.567Z,3.38
2023-06-06T05:02:51.438Z,8.90
2023-06-06T05:07:54.259Z,7.55
2023-06-06T05:12:56.955Z,5.10
2023-06-06T05:17:59.622Z,3.45
2023-06-06T05:23:02.389Z,6.95
2023-06-06T05:28:05.159Z,1.98
2023-06-06T05:33:09.938Z,3.00
2023-06-06T05:38:13.514Z,2.78
2023-06-06T05:43:17.326Z,4.03
2023-06-06T05:48:20.150Z,6.75
2023-06-06T05:53:25.027Z,6.72
2023-06-06T05:58:27.975Z,15.07
2023-06-06T06:03:30.758Z,4.97
2023-06-06T06:08:35.589Z,3.65
2023-06-06T06:13:38.478Z,4.07
2023-06-06T06:18:41.230Z,5.90
2023-06-06T06:23:43.991Z,4.40
2023-06-06T06:28:51.367Z,8.45
2023-06-06T06:33:54.387Z,7.82
2023-06-06T06:38:57.216Z,15.00
2023-06-06T06:43:59.837Z,12.48
2023-06-06T06:49:02.546Z,19.80
2023-06-06T06:54:05.463Z,2.97
2023-06-06T06:59:08.939Z,13.98
2023-06-06T07:04:11.888Z,2.13
2023-06-06T07:09:15.758Z,3.72
2023-06-06T07:14:18.433Z,14.95
2023-06-06T07:19:21.088Z,9.32
2023-06-06T07:24:24.409Z,3.58
2023-06-06T07:29:28.587Z,2.45
2023-06-06T07:34:31.509Z,13.48
2023-06-06T07:39:34.223Z,19.42
2023-06-06T07:44:36.906Z,9.23
2023-06-06T07:49:42.409Z,3.72
2023-06-06T07:54:45.343Z,2.65
2023-06-06T07:59:48.288Z,9.50
2023-06-06T08:04:51.615Z,6.18
2023-06-06T08:09:54.699Z,13.05
2023-06-06T08:14:57.645Z,8.90
2023-06-06T08:20:00.376Z,2.85
2023-06-06T08:25:09.574Z,5.72
2023-06-06T08:30:12.863Z,5.43
2023-06-06T08:35:15.575Z,4.13
2023-06-06T08:40:18.752Z,7.18
2023-06-06T08:45:22.998Z,3.15
2023-06-06T08:50:27.503Z,3.13
2023-06-06T08:55:30.181Z,2.97
2023-06-06T09:00:33.050Z,3.47
2023-06-06T09:05:41.210Z,4.97
2023-06-06T09:10:45.614Z,10.55
2023-06-06T09:15:49.849Z,3.33
2023-06-06T09:20:55.586Z,2.58
2023-06-06T09:25:58.953Z,4.20
2023-06-06T09:31:01.592Z,22.63
2023-06-06T09:36:05.729Z,3.97
2023-06-06T09:41:08.528Z,4.15
2023-06-06T09:46:16.932Z,8.55
2023-06-06T09:51:20.099Z,10.32
2023-06-06T09:56:24.748Z,9.82
2023-06-06T10:01:29.714Z,7.25
2023-06-06T10:06:38.822Z,28.13
2023-06-06T10:11:41.696Z,11.48
2023-06-06T10:16:44.887Z,19.48
2023-06-06T10:21:49.600Z,15.80
2023-06-06T10:27:05.379Z,2.33
2023-06-06T10:32:18.623Z,9.60
2023-06-06T10:37:23.310Z,5.28
2023-06-06T10:42:40.167Z,12.88
2023-06-06T10:47:49.043Z,4.45
2023-06-06T10:52:55.979Z,2.95
2023-06-06T10:58:04.560Z,5.05
2023-06-06T11:03:17.178Z,3.83
2023-06-06T11:08:20.262Z,6.35
2023-06-06T11:13:35.018Z,9.80
2023-06-06T11:18:41.309Z,9.77
2023-06-06T11:23:45.258Z,6.13
2023-06-06T11:28:48.079Z,3.42
2023-06-06T11:33:51.493Z,16.27
2023-06-06T11:38:54.150Z,5.78
2023-06-06T11:43:57.096Z,10.93
2023-06-06T11:49:01.805Z,5.72
2023-06-06T11:54:14.673Z,12.70
2023-06-06T11:59:17.527Z,8.05
2023-06-06T12:04:27.752Z,7.93
2023-06-06T12:09:31.084Z,13.00
2023-06-06T12:14:34.877Z,14.73
2023-06-06T12:19:38.264Z,14.93
2023-06-06T12:24:48.617Z,10.15
2023-06-06T12:29:55.870Z,5.28
2023-06-06T12:35:01.098Z,11.57
2023-06-06T12:40:24.422Z,20.83
2023-06-06T12:45:28.890Z,6.15
2023-06-06T12:50:31.760Z,6.60
2023-06-06T12:55:34.501Z,11.68
2023-06-06T13:00:39.385Z,9.20
2023-06-06T13:05:42.058Z,7.38
2023-06-06T13:10:45.095Z,9.65
2023-06-06T13:15:47.867Z,13.57
2023-06-06T13:20:54.843Z,9.63
2023-06-06T13:25:57.714Z,2.90
2023-06-06T13:31:00.420Z,3.50
2023-06-06T13:36:03.165Z,10.02
2023-06-06T13:41:05.880Z,6.10
2023-06-06T13:46:08.579Z,11.13
2023-06-06T13:51:13.285Z,10.57
2023-06-06T13:56:16.950Z,3.33
2023-06-06T14:01:21.597Z,9.40
2023-06-06T14:06:24.915Z,3.38
2023-06-06T14:11:27.755Z,19.38
2023-06-06T14:16:30.428Z,12.35
2023-06-06T14:21:36.043Z,9.45
2023-06-06T14:26:39.391Z,5.40
2023-06-06T14:31:42.209Z,4.88
2023-06-06T14:36:45.688Z,8.35
2023-06-06T14:41:48.410Z,4.13
2023-06-06T14:46:51.198Z,6.88
2023-06-06T14:51:54.507Z,5.07
2023-06-06T14:56:57.226Z,7.63
2023-06-06T15:02:00.096Z,12.45
2023-06-06T15:07:05.288Z,11.10
2023-06-06T15:12:13.334Z,9.02
2023-06-06T15:17:16.669Z,5.25
2023-06-06T15:22:19.392Z,5.57
2023-06-06T15:27:22.342Z,5.15
2023-06-06T15:32:25.713Z,6.65
2023-06-06T15:37:28.585Z,8.07
2023-06-06T15:42:31.250Z,8.52
2023-06-06T15:47:33.919Z,8.02
2023-06-06T15:52:36.594Z,7.43
2023-06-06T15:57:39.453Z,8.43
2023-06-06T16:02:42.209Z,4.88
2023-06-06T16:07:45.285Z,5.80
2023-06-06T16:12:48.203Z,5.88
2023-06-06T16:17:51.256Z,8.20
2023-06-06T16:22:54.107Z,6.32
2023-06-06T16:27:56.881Z,7.97
2023-06-06T16:32:59.630Z,5.30
2023-06-06T16:38:02.388Z,3.40
2023-06-06T16:43:04.978Z,5.28
2023-06-06T16:48:12.492Z,7.15
2023-06-06T16:53:16.765Z,3.15
2023-06-06T16:58:19.380Z,4.90
2023-06-06T17:03:23.855Z,8.40
2023-06-06T17:08:26.657Z,5.63
2023-06-06T17:13:30.103Z,5.40
2023-06-06T17:18:32.813Z,4.82
2023-06-06T17:23:36.608Z,6.72
2023-06-06T17:28:39.336Z,2.58
2023-06-06T17:33:42.044Z,5.75
2023-06-06T17:38:44.776Z,2.78
2023-06-06T17:43:47.477Z,8.52
2023-06-06T17:48:51.479Z,8.73
2023-06-06T17:53:54.395Z,7.95
2023-06-06T17:58:57.014Z,4.25
2023-06-06T18:04:03.655Z,9.52
2023-06-06T18:09:10.500Z,11.43
2023-06-06T18:14:13.315Z,10.68
2023-06-06T18:19:16.118Z,10.10
2023-06-06T18:24:18.737Z,27.15
2023-06-06T18:29:21.535Z,20.40
2023-06-06T18:34:24.620Z,19.20
2023-06-06T18:39:27.442Z,29.65
2023-06-06T18:44:30.083Z,60.85
2023-06-06T18:49:32.710Z,47.08
2023-06-06T18:54:35.584Z,73.07
2023-06-06T18:59:38.972Z,48.55
2023-06-06T19:04:41.660Z,57.08
2023-06-06T19:09:44.569Z,51.80
2023-06-06T19:14:47.312Z,57.20
2023-06-06T19:19:49.895Z,44.15
2023-06-06T19:24:52.497Z,29.00
2023-06-06T19:29:55.615Z,16.50
2023-06-06T19:34:58.595Z,30.48
2023-06-06T19:40:01.663Z,40.33
2023-06-06T19:45:08.326Z,33.65
2023-06-06T19:50:12.031Z,22.63
2023-06-06T19:55:15.248Z,32.38
2023-06-06T20:00:18.485Z,39.78
2023-06-06T20:05:21.491Z,41.28
2023-06-06T20:10:24.757Z,23.60
2023-06-06T20:15:27.840Z,15.35
2023-06-06T20:20:30.597Z,14.38
2023-06-06T20:25:33.535Z,19.67
2023-06-06T20:30:38.646Z,26.35
2023-06-06T20:35:41.312Z,15.75
2023-06-06T20:40:47.369Z,12.52
2023-06-06T20:45:51.952Z,20.52
2023-06-06T20:50:54.753Z,18.95
2023-06-06T20:55:57.575Z,26.88
2023-06-06T21:01:00.397Z,17.90
2023-06-06T21:06:03.054Z,13.82
2023-06-06T21:11:06.908Z,16.45
2023-06-06T21:16:09.680Z,8.88
2023-06-06T21:21:12.336Z,9.27
2023-06-06T21:26:15.176Z,10.85
2023-06-06T21:31:17.869Z,11.73
2023-06-06T21:36:20.570Z,23.40
2023-06-06T21:41:23.176Z,9.73
2023-06-06T21:46:25.870Z,9.98
2023-06-06T21:51:28.608Z,10.00
2023-06-06T21:56:31.321Z,11.75
2023-06-06T22:01:34.001Z,4.03
2023-06-06T22:06:38.180Z,9.13
2023-06-06T22:11:40.877Z,10.07
2023-06-06T22:16:43.634Z,5.00
2023-06-06T22:21:46.652Z,4.05
2023-06-06T22:26:50.625Z,6.65
2023-06-06T22:31:53.443Z,5.68
2023-06-06T22:36:56.768Z,10.32
2023-06-06T22:41:59.695Z,7.43
2023-06-06T22:47:02.378Z,7.25
2023-06-06T22:52:05.545Z,6.30
2023-06-06T22:57:08.228Z,7.82
2023-06-06T23:02:10.953Z,4.03
2023-06-06T23:07:13.625Z,7.88
2023-06-06T23:12:16.368Z,7.97
2023-06-06T23:17:19.055Z,10.70
2023-06-06T23:22:30.408Z,9.88
2023-06-06T23:27:41.225Z,7.90
2023-06-06T23:32:44.040Z,10.32
2023-06-06T23:37:46.739Z,7.90
2023-06-06T23:42:49.483Z,5.40
2023-06-06T23:47:52.146Z,5.80
2023-06-06T23:52:56.171Z,6.45
2023-06-06T23:57:58.811Z,9.30
